createdAt,value
2023-01-17T00:07:12.422Z,7.15
2023-01-17T00:17:13.916Z,5.78
2023-01-17T00:27:15.167Z,4.97
2023-01-17T00:37:16.426Z,7.63
2023-01-17T00:47:36.497Z,6.25
2023-01-17T00:57:56.532Z,9.68
2023-01-17T01:08:16.763Z,9.82
2023-01-17T01:18:36.858Z,5.47
2023-01-17T01:28:56.867Z,11.10
2023-01-17T01:38:58.123Z,9.48
2023-01-17T01:48:59.440Z,9.63
2023-01-17T01:59:00.726Z,6.38
2023-01-17T02:09:01.995Z,9.73
2023-01-17T02:19:03.362Z,7.05
2023-01-17T02:29:06.893Z,6.93
2023-01-17T02:39:08.204Z,9.50
2023-01-17T02:49:09.483Z,6.95
2023-01-17T02:59:10.794Z,7.07
2023-01-17T03:09:12.070Z,6.05
2023-01-17T03:19:14.749Z,6.15
2023-01-17T03:29:16.647Z,7.43
2023-01-17T03:39:17.965Z,6.68
2023-01-17T03:49:19.241Z,7.45
2023-01-17T03:59:20.561Z,4.97
2023-01-17T04:09:21.832Z,7.13
2023-01-17T04:19:23.103Z,11.13
2023-01-17T04:29:24.416Z,5.63
2023-01-17T04:39:25.801Z,9.23
2023-01-17T04:49:27.049Z,6.05
2023-01-17T04:59:28.384Z,7.70
2023-01-17T05:09:29.694Z,8.73
2023-01-17T05:19:30.961Z,6.10
2023-01-17T05:29:32.245Z,7.28
2023-01-17T05:39:33.496Z,5.72
2023-01-17T05:49:34.763Z,7.38
2023-01-17T05:59:37.427Z,8.10
2023-01-17T06:09:38.934Z,11.85
2023-01-17T06:19:40.312Z,23.95
2023-01-17T06:29:41.608Z,23.40
2023-01-17T06:39:42.949Z,11.82
2023-01-17T06:49:44.229Z,7.35
2023-01-17T06:59:45.532Z,9.43
2023-01-17T07:09:46.831Z,8.00
2023-01-17T07:19:48.245Z,8.73
2023-01-17T07:29:49.728Z,7.97
2023-01-17T07:39:51.090Z,10.43
2023-01-17T07:49:52.410Z,10.15
2023-01-17T07:59:53.690Z,9.85
2023-01-17T08:09:55.457Z,6.25
2023-01-17T08:19:56.746Z,22.55
2023-01-17T08:29:58.142Z,19.33
2023-01-17T08:39:59.419Z,12.65
2023-01-17T08:50:01.144Z,11.73
2023-01-17T09:00:02.488Z,11.38
2023-01-17T09:10:03.749Z,8.85
2023-01-17T09:20:05.156Z,11.13
2023-01-17T09:30:06.522Z,11.02
2023-01-17T09:40:07.800Z,17.33
2023-01-17T09:50:09.075Z,10.50
2023-01-17T10:00:12.592Z,9.25
2023-01-17T10:10:13.916Z,7.88
2023-01-17T10:20:15.188Z,9.98
2023-01-17T10:30:16.499Z,7.78
2023-01-17T10:40:18.976Z,6.40
2023-01-17T10:50:21.478Z,6.47
2023-01-17T11:00:22.792Z,7.57
2023-01-17T11:10:24.015Z,8.02
2023-01-17T11:20:25.378Z,9.60
2023-01-17T11:30:29.563Z,7.45
2023-01-17T11:40:30.956Z,4.57
2023-01-17T11:50:32.332Z,7.78
2023-01-17T12:00:33.634Z,9.93
2023-01-17T12:10:34.924Z,5.25
2023-01-17T12:20:36.210Z,6.18
2023-01-17T12:30:37.768Z,5.45
2023-01-17T12:40:39.066Z,4.25
2023-01-17T12:50:40.362Z,6.18
2023-01-17T13:00:41.731Z,5.35
2023-01-17T13:10:43.415Z,5.35
2023-01-17T13:20:44.699Z,8.32
2023-01-17T13:30:46.035Z,8.10
2023-01-17T13:40:47.597Z,8.90
2023-01-17T13:50:48.968Z,7.38
2023-01-17T14:00:50.717Z,7.70
2023-01-17T14:10:52.413Z,8.38
2023-01-17T14:20:53.707Z,5.93
2023-01-17T14:30:56.069Z,7.88
2023-01-17T14:40:57.425Z,14.52
2023-01-17T14:51:00.168Z,8.75
2023-01-17T15:01:01.619Z,45.75
2023-01-17T15:11:05.406Z,28.42
2023-01-17T15:21:06.782Z,12.90
2023-01-17T15:31:09.176Z,17.77
2023-01-17T15:41:10.473Z,8.75
2023-01-17T15:51:11.734Z,10.27
2023-01-17T16:01:13.037Z,11.70
2023-01-17T16:11:15.807Z,10.55
2023-01-17T16:21:17.117Z,10.15
2023-01-17T16:31:18.491Z,14.70
2023-01-17T16:41:19.798Z,14.13
2023-01-17T16:51:21.068Z,9.93
2023-01-17T17:01:22.989Z,8.65
2023-01-17T17:11:24.581Z,10.48
2023-01-17T17:21:25.909Z,12.52
2023-01-17T17:31:27.183Z,14.10
2023-01-17T17:41:28.609Z,16.85
2023-01-17T17:51:29.921Z,16.60
2023-01-17T18:01:31.491Z,11.43
2023-01-17T18:11:32.955Z,11.18
2023-01-17T18:21:34.176Z,12.10
2023-01-17T18:31:35.628Z,14.60
2023-01-17T18:41:36.942Z,12.63
2023-01-17T18:51:38.177Z,14.43
2023-01-17T19:01:42.182Z,11.93
2023-01-17T19:11:44.925Z,11.40
2023-01-17T19:21:46.260Z,16.25
2023-01-17T19:31:47.506Z,14.55
2023-01-17T19:41:48.795Z,10.77
2023-01-17T19:51:50.622Z,10.77
2023-01-17T20:01:52.062Z,11.75
2023-01-17T20:11:53.637Z,8.90
2023-01-17T20:21:54.988Z,11.77
2023-01-17T20:31:56.272Z,17.77
2023-01-17T20:41:57.692Z,14.15
2023-01-17T20:52:00.390Z,14.43
2023-01-17T21:02:02.203Z,23.15
2023-01-17T21:12:03.587Z,16.15
2023-01-17T21:22:05.483Z,21.38
2023-01-17T21:32:08.646Z,13.20
2023-01-17T21:42:09.899Z,20.50
2023-01-17T21:52:11.151Z,24.80
2023-01-17T22:02:12.490Z,23.65
2023-01-17T22:12:13.761Z,22.55
2023-01-17T22:22:15.004Z,22.05
2023-01-17T22:32:16.277Z,23.17
2023-01-17T22:42:17.621Z,25.85
2023-01-17T22:52:18.883Z,21.33
2023-01-17T23:02:20.195Z,19.88
2023-01-17T23:12:21.501Z,20.00
2023-01-17T23:22:23.047Z,21.25
2023-01-17T23:32:24.323Z,15.98
2023-01-17T23:42:44.560Z,18.88
2023-01-17T23:52:45.836Z,19.63
